Cacapava do Sul, Brazil
Current Conditions -  °F | °C
As of 4:00 PM on Sunday 21 Dec 2014 (Local Time) from SBSM Reporting Station
Overcast Overcast  
Wind Chill: 70°   Ceiling: 10000
Heat Index: 70°   Visibility: 6mi
Dew Point: 66°   Wind: 6mph
Humidity: 88%   Direction: 150°SSE
Pressure: NA   Gusts: NA
Location:  30.51°S, 53.49°W
Report Text: SBSM 211800Z 15005KT 110V190 9999 FEW008 SCT025 OVC100 21/19 Q1001
Loading
Personal Weather Stations






























Interactive Weather Map New forecast layout! Learn more

10-Day Weather Forecast

Advertisements
Track Severe Weather on mobile